createdAt,value
2019-03-04T00:01:13.621Z,11.00
2019-03-04T00:03:44.369Z,11.00
2019-03-04T00:06:15.084Z,11.00
2019-03-04T00:08:45.784Z,11.00
2019-03-04T00:11:16.550Z,11.00
2019-03-04T00:13:47.543Z,11.00
2019-03-04T00:16:18.262Z,11.00
2019-03-04T00:18:48.946Z,11.00
2019-03-04T00:21:19.624Z,11.00
2019-03-04T00:23:50.292Z,11.00
2019-03-04T00:26:20.973Z,11.00
2019-03-04T00:28:52.630Z,10.90
2019-03-04T00:31:23.580Z,10.90
2019-03-04T00:33:54.382Z,10.90
2019-03-04T00:36:25.325Z,10.90
2019-03-04T00:38:56.043Z,10.90
2019-03-04T00:41:27.124Z,10.80
2019-03-04T00:43:57.822Z,10.70
2019-03-04T00:46:28.584Z,10.80
2019-03-04T00:48:59.269Z,10.80
2019-03-04T00:51:30.316Z,10.80
2019-03-04T00:54:01.008Z,10.80
2019-03-04T00:56:31.714Z,10.90
2019-03-04T00:59:02.428Z,10.90
2019-03-04T01:01:33.186Z,10.80
2019-03-04T01:04:04.173Z,10.80
2019-03-04T01:06:35.827Z,10.80
2019-03-04T01:09:09.581Z,10.90
2019-03-04T01:11:40.281Z,10.90
2019-03-04T01:14:11.317Z,10.90
2019-03-04T01:16:42.012Z,10.90
2019-03-04T01:19:12.681Z,10.90
2019-03-04T01:21:43.361Z,11.00
2019-03-04T01:24:14.043Z,10.90
2019-03-04T01:26:44.717Z,10.90
2019-03-04T01:29:15.394Z,10.90
2019-03-04T01:31:46.781Z,11.00
2019-03-04T01:34:17.469Z,11.10
2019-03-04T01:36:48.231Z,11.00
2019-03-04T01:39:18.889Z,11.00
2019-03-04T01:41:49.571Z,11.00
2019-03-04T01:44:21.437Z,11.00
2019-03-04T01:46:52.118Z,11.00
2019-03-04T01:49:23.039Z,10.90
2019-03-04T01:51:53.709Z,11.00
2019-03-04T01:54:24.460Z,11.00
2019-03-04T01:56:56.205Z,11.00
2019-03-04T01:59:26.913Z,11.00
2019-03-04T03:00:55.917Z,11.50
2019-03-04T03:03:26.588Z,11.50
2019-03-04T03:05:57.347Z,11.60
2019-03-04T03:08:28.009Z,11.50
2019-03-04T03:10:58.698Z,11.50
2019-03-04T03:13:29.369Z,11.50
2019-03-04T03:16:00.030Z,11.40
2019-03-04T03:18:30.801Z,11.40
2019-03-04T03:21:01.481Z,11.40
2019-03-04T03:23:32.142Z,11.40
2019-03-04T03:26:02.821Z,11.40
2019-03-04T03:28:33.677Z,11.50
2019-03-04T03:31:05.397Z,11.40
2019-03-04T03:33:36.488Z,11.40
2019-03-04T03:36:07.233Z,11.40
2019-03-04T03:38:37.916Z,11.40
2019-03-04T03:41:08.652Z,11.40
2019-03-04T03:43:40.295Z,11.50
2019-03-04T03:46:10.963Z,11.40
2019-03-04T03:48:41.637Z,11.40
2019-03-04T03:51:12.337Z,11.40
2019-03-04T03:53:43.025Z,11.30
2019-03-04T03:56:13.778Z,11.30
2019-03-04T03:58:44.459Z,11.30
2019-03-04T04:01:15.205Z,11.30
2019-03-04T04:03:45.881Z,11.30
2019-03-04T04:06:16.835Z,11.30
2019-03-04T04:08:47.577Z,11.20
2019-03-04T04:11:18.262Z,11.30
2019-03-04T04:13:49.009Z,11.40
2019-03-04T04:16:19.694Z,11.40
2019-03-04T04:18:50.389Z,11.30
2019-03-04T04:21:21.129Z,11.30
2019-03-04T04:23:51.816Z,11.30
2019-03-04T04:26:22.492Z,11.30
2019-03-04T04:29:12.265Z,11.30
2019-03-04T04:31:43.761Z,11.20
2019-03-04T04:34:14.442Z,11.20
2019-03-04T04:36:46.078Z,11.30
2019-03-04T04:39:16.765Z,11.20
2019-03-04T04:41:47.597Z,11.20
2019-03-04T04:44:18.266Z,11.30
2019-03-04T04:46:56.116Z,11.20
2019-03-04T04:49:28.674Z,11.20
2019-03-04T04:51:59.365Z,11.10
2019-03-04T04:54:30.053Z,11.10
2019-03-04T04:57:00.724Z,11.10
2019-03-04T04:59:31.412Z,11.10
2019-03-04T05:02:02.077Z,11.10
2019-03-04T05:04:33.817Z,11.30
2019-03-04T05:07:04.482Z,11.30
2019-03-04T05:09:35.173Z,11.40
2019-03-04T05:12:05.854Z,11.40
2019-03-04T05:14:36.528Z,11.50
2019-03-04T05:17:07.281Z,11.40
2019-03-04T05:19:38.206Z,11.40
2019-03-04T05:22:08.885Z,11.30
2019-03-04T05:24:39.553Z,11.40
2019-03-04T05:27:10.217Z,11.30
2019-03-04T05:29:40.917Z,11.30
2019-03-04T05:32:11.576Z,11.30
2019-03-04T05:34:42.257Z,11.30
2019-03-04T05:37:13.008Z,11.30
2019-03-04T05:39:43.693Z,11.40
2019-03-04T05:42:14.389Z,11.50
2019-03-04T05:44:45.160Z,11.40
2019-03-04T05:47:15.838Z,11.40
2019-03-04T05:49:46.501Z,11.40
2019-03-04T05:52:17.174Z,11.50
2019-03-04T05:54:47.934Z,11.50
2019-03-04T05:57:18.593Z,11.40
2019-03-04T05:59:49.286Z,11.40
2019-03-04T06:02:19.986Z,11.50
2019-03-04T06:04:51.012Z,11.50
2019-03-04T06:07:58.622Z,11.50
2019-03-04T06:10:30.288Z,11.50
2019-03-04T06:13:00.974Z,11.60
2019-03-04T06:15:31.738Z,11.60
2019-03-04T06:18:02.412Z,11.50
2019-03-04T06:20:33.073Z,11.60
2019-03-04T06:23:03.749Z,11.60
2019-03-04T06:25:34.430Z,11.60
2019-03-04T06:28:05.092Z,11.50
2019-03-04T06:30:35.862Z,11.50
2019-03-04T06:33:06.537Z,11.50
2019-03-04T06:35:37.197Z,11.60
2019-03-04T06:38:07.885Z,11.50
2019-03-04T06:40:38.573Z,11.50
2019-03-04T06:43:09.271Z,11.50
2019-03-04T06:45:40.009Z,11.60
2019-03-04T06:48:10.695Z,11.60
2019-03-04T06:51:07.364Z,11.50
2019-03-04T06:53:59.286Z,11.60
2019-03-04T06:56:39.848Z,11.50
2019-03-04T06:59:19.360Z,11.60
2019-03-04T07:01:53.797Z,11.60
2019-03-04T07:05:04.464Z,11.60
2019-03-04T07:07:35.224Z,11.60
2019-03-04T07:10:06.062Z,11.60
2019-03-04T07:12:36.739Z,11.50
2019-03-04T07:15:07.518Z,11.50
2019-03-04T07:17:38.217Z,11.50
2019-03-04T07:20:11.551Z,11.40
2019-03-04T07:22:42.230Z,11.30
2019-03-04T07:25:12.893Z,11.40
2019-03-04T07:27:44.384Z,11.30
2019-03-04T07:30:15.152Z,11.30
2019-03-04T07:32:45.850Z,11.30
2019-03-04T07:35:16.523Z,11.30
2019-03-04T07:37:50.761Z,11.20
2019-03-04T07:40:21.717Z,11.30
2019-03-04T07:42:52.389Z,11.30
2019-03-04T07:45:23.145Z,11.30
2019-03-04T07:47:53.808Z,11.30
2019-03-04T07:50:24.465Z,11.40
2019-03-04T07:52:57.930Z,11.60
2019-03-04T07:55:28.687Z,11.80
2019-03-04T07:57:59.346Z,11.90
2019-03-04T08:00:30.231Z,11.90
2019-03-04T08:03:00.916Z,12.00
2019-03-04T08:05:31.664Z,12.00
2019-03-04T08:08:02.498Z,12.10
2019-03-04T08:11:01.367Z,12.10
2019-03-04T08:13:36.316Z,12.20
2019-03-04T08:16:07.324Z,12.20
2019-03-04T08:18:38.009Z,12.20
2019-03-04T08:21:08.765Z,12.20
2019-03-04T08:23:39.454Z,12.30
2019-03-04T08:26:10.240Z,12.30
2019-03-04T08:28:40.926Z,12.30
2019-03-04T08:31:11.777Z,12.30
2019-03-04T08:33:42.452Z,12.30
2019-03-04T08:36:13.226Z,12.40
2019-03-04T08:38:43.969Z,12.40
2019-03-04T08:41:14.836Z,12.40
2019-03-04T08:43:45.520Z,12.50
2019-03-04T08:46:16.174Z,12.50
2019-03-04T08:48:46.845Z,12.60
2019-03-04T08:51:17.533Z,12.70
2019-03-04T08:53:48.245Z,12.80
2019-03-04T08:56:19.062Z,12.80
2019-03-04T08:58:49.842Z,12.80
2019-03-04T09:01:20.501Z,12.90
2019-03-04T09:03:52.038Z,12.90
2019-03-04T09:06:22.781Z,13.00
2019-03-04T09:08:56.910Z,13.00
2019-03-04T09:11:27.634Z,13.00
2019-03-04T09:13:58.302Z,13.00
2019-03-04T09:16:29.087Z,13.00
2019-03-04T09:18:59.788Z,12.80
2019-03-04T09:21:30.467Z,12.00
2019-03-04T09:24:01.212Z,11.50
2019-03-04T09:26:32.960Z,11.00
2019-03-04T09:29:03.636Z,10.90
2019-03-04T09:31:34.342Z,10.70
2019-03-04T09:34:05.018Z,10.50
2019-03-04T09:36:36.693Z,10.40
2019-03-04T09:39:09.597Z,10.30
2019-03-04T09:41:40.445Z,10.40
2019-03-04T09:44:12.456Z,10.30
2019-03-04T09:46:43.218Z,10.20
2019-03-04T09:49:14.207Z,10.30
2019-03-04T09:51:44.890Z,10.30
2019-03-04T09:54:15.597Z,10.40
2019-03-04T09:56:46.392Z,10.40
2019-03-04T09:59:17.098Z,10.50
2019-03-04T10:01:51.962Z,10.70
2019-03-04T10:04:58.119Z,10.70
2019-03-04T10:07:58.049Z,10.80
2019-03-04T10:11:07.269Z,10.80
2019-03-04T10:14:01.577Z,10.90
2019-03-04T10:16:56.279Z,11.00
2019-03-04T10:20:06.356Z,11.20
2019-03-04T10:23:10.613Z,11.30
2019-03-04T10:26:30.028Z,11.40
2019-03-04T10:29:52.301Z,11.70
2019-03-04T10:33:10.976Z,11.90
2019-03-04T10:36:21.502Z,12.20
2019-03-04T10:39:22.458Z,12.20
2019-03-04T10:42:15.957Z,12.10
2019-03-04T10:45:10.824Z,12.00
2019-03-04T10:47:41.603Z,12.10
2019-03-04T10:50:13.477Z,12.10
2019-03-04T10:52:44.245Z,12.10
2019-03-04T10:55:15.297Z,12.10
2019-03-04T10:57:45.980Z,12.10
2019-03-04T11:00:17.952Z,12.00
2019-03-04T11:02:48.772Z,12.10
2019-03-04T11:05:20.203Z,12.20
2019-03-04T11:07:51.023Z,12.20
2019-03-04T11:10:21.700Z,12.40
2019-03-04T11:12:52.649Z,12.60
2019-03-04T11:15:24.952Z,12.60
2019-03-04T11:17:55.725Z,12.80
2019-03-04T11:20:26.923Z,13.00
2019-03-04T11:22:57.812Z,13.10
2019-03-04T11:25:29.561Z,13.10
2019-03-04T11:28:00.345Z,13.20
2019-03-04T11:30:32.172Z,13.10
2019-03-04T11:33:02.846Z,13.10
2019-03-04T11:35:33.597Z,13.00
2019-03-04T11:38:04.864Z,12.70
2019-03-04T11:40:38.497Z,11.90
2019-03-04T11:43:09.181Z,11.30
2019-03-04T11:45:42.205Z,10.90
2019-03-04T11:48:13.145Z,10.70
2019-03-04T11:50:43.815Z,10.70
2019-03-04T11:53:14.528Z,10.50
2019-03-04T11:55:45.280Z,10.30
2019-03-04T11:58:16.200Z,10.10
2019-03-04T12:00:52.761Z,10.00
2019-03-04T12:03:23.469Z,10.10
2019-03-04T12:05:54.154Z,10.50
2019-03-04T12:08:25.106Z,10.50
2019-03-04T12:10:55.822Z,10.60
2019-03-04T12:13:27.197Z,10.60
2019-03-04T12:15:58.241Z,10.60
2019-03-04T12:18:28.988Z,10.90
2019-03-04T12:21:00.001Z,11.30
2019-03-04T12:23:31.541Z,11.70
2019-03-04T12:26:02.276Z,11.70
2019-03-04T12:28:32.972Z,11.60
2019-03-04T12:31:03.670Z,11.50
2019-03-04T12:33:34.477Z,11.50
2019-03-04T12:36:05.365Z,11.60
2019-03-04T12:38:37.096Z,11.50
2019-03-04T12:41:07.789Z,11.60
2019-03-04T12:43:38.473Z,11.50
2019-03-04T12:46:09.134Z,11.60
2019-03-04T12:48:39.813Z,11.30
2019-03-04T12:51:11.553Z,11.20
2019-03-04T12:53:42.316Z,11.00
2019-03-04T12:56:13.049Z,10.80
2019-03-04T12:58:43.720Z,11.00
2019-03-04T13:01:14.499Z,11.30
2019-03-04T13:03:45.202Z,11.20
2019-03-04T13:06:15.877Z,11.40
2019-03-04T13:08:46.552Z,11.50
2019-03-04T13:11:17.470Z,11.70
2019-03-04T13:13:48.493Z,11.70
2019-03-04T13:16:19.171Z,11.60
2019-03-04T13:18:49.842Z,11.70
2019-03-04T13:21:20.521Z,11.90
2019-03-04T13:23:51.209Z,12.10
2019-03-04T13:26:21.880Z,12.10
2019-03-04T13:28:52.545Z,12.30
2019-03-04T13:31:23.225Z,12.20
2019-03-04T13:33:53.978Z,12.00
2019-03-04T13:36:24.656Z,11.90
2019-03-04T13:38:55.330Z,11.70
2019-03-04T13:41:26.001Z,11.50
2019-03-04T13:43:56.699Z,11.30
2019-03-04T13:46:27.700Z,10.60
2019-03-04T13:48:59.345Z,10.20
2019-03-04T13:51:30.028Z,10.00
2019-03-04T13:54:00.770Z,9.80
2019-03-04T13:56:31.420Z,9.90
2019-03-04T13:59:02.117Z,9.80
2019-03-04T14:01:34.263Z,9.60
2019-03-04T14:04:05.047Z,9.50
2019-03-04T14:06:35.834Z,9.50
2019-03-04T14:09:07.287Z,9.60
2019-03-04T14:11:39.520Z,9.60
2019-03-04T14:14:10.192Z,9.70
2019-03-04T14:16:40.873Z,9.80
2019-03-04T14:19:11.545Z,9.70
2019-03-04T14:21:42.589Z,9.80
2019-03-04T14:24:13.295Z,9.80
2019-03-04T14:26:43.978Z,9.80
2019-03-04T14:29:14.638Z,9.80
2019-03-04T14:31:45.320Z,9.70
2019-03-04T14:34:16.261Z,9.60
2019-03-04T14:36:46.905Z,9.60
2019-03-04T14:39:17.579Z,9.50
2019-03-04T14:41:48.241Z,9.50
2019-03-04T14:44:18.902Z,9.50
2019-03-04T14:46:49.571Z,9.50
2019-03-04T14:49:20.288Z,9.50
2019-03-04T14:51:50.981Z,9.50
2019-03-04T14:54:21.966Z,9.50
2019-03-04T14:56:52.642Z,9.50
2019-03-04T14:59:23.310Z,9.50
2019-03-04T15:01:54.025Z,9.40
2019-03-04T15:04:24.731Z,9.40
2019-03-04T15:06:55.380Z,9.30
2019-03-04T15:09:26.146Z,9.30
2019-03-04T15:11:56.816Z,9.30
2019-03-04T15:14:27.489Z,9.30
2019-03-04T15:17:03.392Z,9.20
2019-03-04T15:19:30.605Z,9.20
2019-03-04T15:22:01.273Z,9.20
2019-03-04T15:24:32.196Z,9.20
2019-03-04T15:27:02.879Z,9.20
2019-03-04T15:29:33.536Z,9.10
2019-03-04T15:32:04.201Z,9.00
2019-03-04T15:34:34.870Z,9.00
2019-03-04T15:37:05.536Z,9.00
2019-03-04T15:39:36.301Z,9.00
2019-03-04T15:42:06.972Z,8.70
2019-03-04T15:44:38.634Z,8.40
2019-03-04T15:47:09.315Z,8.30
2019-03-04T15:49:39.985Z,8.20
2019-03-04T15:52:11.641Z,8.10
2019-03-04T15:54:42.297Z,7.90
2019-03-04T15:57:13.165Z,7.80
2019-03-04T15:59:43.809Z,7.70
2019-03-04T16:02:15.460Z,7.70
2019-03-04T16:04:46.293Z,7.70
2019-03-04T16:07:17.168Z,7.70
2019-03-04T16:09:48.906Z,7.60
2019-03-04T16:12:21.926Z,7.60
2019-03-04T16:14:52.672Z,7.60
2019-03-04T16:17:23.341Z,7.60
2019-03-04T16:19:54.015Z,7.50
2019-03-04T16:22:24.667Z,7.50
2019-03-04T16:24:55.606Z,7.50
2019-03-04T16:27:26.259Z,7.40
2019-03-04T16:29:56.936Z,7.40
2019-03-04T16:32:27.612Z,7.30
2019-03-04T16:34:58.272Z,7.30
2019-03-04T16:37:28.949Z,7.30
2019-03-04T16:39:59.601Z,7.20
2019-03-04T16:42:30.296Z,7.20
2019-03-04T16:45:00.956Z,7.20
2019-03-04T16:47:31.613Z,7.20
2019-03-04T16:50:02.321Z,7.10
2019-03-04T16:52:33.085Z,7.10
2019-03-04T16:55:03.837Z,7.00
2019-03-04T16:57:34.494Z,7.00
2019-03-04T17:00:06.844Z,7.00
2019-03-04T17:02:39.109Z,7.00
2019-03-04T17:05:11.165Z,7.00
2019-03-04T17:07:41.908Z,6.90
2019-03-04T17:10:13.202Z,6.80
2019-03-04T17:12:43.916Z,6.90
2019-03-04T17:15:16.521Z,6.80
2019-03-04T17:17:47.182Z,6.80
2019-03-04T17:20:18.170Z,6.70
2019-03-04T17:22:48.857Z,6.70
2019-03-04T17:25:19.924Z,6.70
2019-03-04T17:27:50.684Z,6.70
2019-03-04T17:30:21.461Z,6.70
2019-03-04T17:32:52.199Z,6.60
2019-03-04T17:35:22.946Z,6.60
2019-03-04T17:37:53.769Z,6.50
2019-03-04T17:40:24.453Z,6.50
2019-03-04T17:42:55.196Z,6.50
2019-03-04T17:45:26.061Z,6.50
2019-03-04T17:47:56.727Z,6.40
2019-03-04T17:50:30.676Z,6.40
2019-03-04T17:53:01.401Z,6.40
2019-03-04T17:55:32.137Z,6.30
2019-03-04T17:58:02.811Z,6.30
2019-03-04T18:00:34.271Z,6.30
2019-03-04T18:03:04.998Z,6.30
2019-03-04T18:05:35.733Z,6.20
2019-03-04T18:08:06.404Z,6.10
2019-03-04T18:10:37.141Z,6.20
2019-03-04T18:13:07.997Z,6.10
2019-03-04T18:15:38.953Z,6.10
2019-03-04T18:18:09.625Z,6.00
2019-03-04T18:20:40.381Z,6.00
2019-03-04T18:23:11.109Z,6.00
2019-03-04T18:25:44.411Z,5.90
2019-03-04T18:28:27.333Z,5.90
2019-03-04T18:31:16.700Z,5.90
2019-03-04T18:34:37.121Z,5.90
2019-03-04T18:37:38.063Z,5.80
2019-03-04T18:40:39.237Z,5.80
2019-03-04T18:43:43.180Z,5.80
2019-03-04T18:46:36.190Z,5.70
2019-03-04T18:49:07.332Z,5.70
2019-03-04T18:51:38.908Z,5.80
2019-03-04T18:54:19.758Z,5.70
2019-03-04T18:56:50.563Z,5.70
2019-03-04T18:59:21.246Z,5.70
2019-03-04T19:01:52.200Z,5.60
2019-03-04T19:04:22.957Z,5.70
2019-03-04T19:06:54.842Z,5.60
2019-03-04T19:09:25.947Z,5.60
2019-03-04T19:11:56.607Z,5.60
2019-03-04T19:14:27.382Z,5.60
2019-03-04T19:16:58.521Z,5.60
2019-03-04T19:19:29.169Z,5.60
2019-03-04T19:21:59.836Z,5.60
2019-03-04T19:24:30.560Z,5.60
2019-03-04T19:27:01.263Z,5.60
2019-03-04T19:29:32.048Z,5.60
2019-03-04T19:32:02.794Z,5.60
2019-03-04T19:34:33.468Z,5.60
2019-03-04T19:37:04.126Z,5.60
2019-03-04T19:39:34.958Z,5.60
2019-03-04T19:42:05.630Z,5.60
2019-03-04T19:44:36.417Z,5.60
2019-03-04T19:47:07.091Z,5.60
2019-03-04T19:49:37.833Z,5.70
2019-03-04T19:52:08.561Z,5.70
2019-03-04T19:54:39.417Z,5.70
2019-03-04T19:57:10.232Z,5.70
2019-03-04T19:59:41.042Z,5.70
2019-03-04T20:02:11.737Z,5.70
2019-03-04T20:04:42.419Z,5.70
2019-03-04T20:07:13.074Z,5.70
2019-03-04T20:09:43.816Z,5.70
2019-03-04T20:12:15.564Z,5.70
2019-03-04T20:14:46.248Z,5.70
2019-03-04T20:17:16.974Z,5.70
2019-03-04T20:19:47.711Z,5.70
2019-03-04T20:22:18.371Z,5.70
2019-03-04T20:24:49.155Z,5.70
2019-03-04T20:27:19.864Z,5.70
2019-03-04T20:29:50.533Z,5.70
2019-03-04T20:32:21.189Z,5.70
2019-03-04T20:34:51.944Z,5.70
2019-03-04T20:37:24.599Z,5.60
2019-03-04T20:39:55.449Z,5.60
2019-03-04T20:42:26.206Z,5.60
2019-03-04T20:44:56.953Z,5.60
2019-03-04T20:47:27.673Z,5.50
2019-03-04T20:49:58.349Z,5.50
2019-03-04T20:52:29.142Z,5.50
2019-03-04T20:54:59.813Z,5.50
2019-03-04T20:57:30.574Z,5.50
2019-03-04T21:00:01.310Z,5.50
2019-03-04T21:02:33.617Z,5.40
2019-03-04T21:05:04.836Z,5.40
2019-03-04T21:07:36.714Z,5.40
2019-03-04T21:10:08.181Z,5.40
2019-03-04T21:12:39.077Z,5.30
2019-03-04T21:15:10.352Z,5.30
2019-03-04T21:17:41.094Z,5.20
2019-03-04T21:20:11.942Z,5.20
2019-03-04T21:22:42.604Z,5.20
2019-03-04T21:25:51.827Z,5.20
2019-03-04T21:28:54.615Z,5.10
2019-03-04T21:31:31.580Z,5.20
2019-03-04T21:34:47.656Z,5.10
2019-03-04T21:37:22.805Z,5.10
2019-03-04T21:39:53.576Z,5.10
2019-03-04T21:42:54.673Z,5.10
2019-03-04T21:45:49.616Z,5.00
2019-03-04T21:48:24.601Z,5.10
2019-03-04T21:51:37.955Z,5.10
2019-03-04T21:54:01.321Z,5.10
2019-03-04T21:56:58.879Z,5.10
2019-03-04T21:59:30.101Z,5.10
2019-03-04T22:02:21.072Z,5.10
2019-03-04T22:04:52.889Z,5.10
2019-03-04T22:07:24.866Z,5.10
2019-03-04T22:09:55.672Z,5.20
2019-03-04T22:12:26.336Z,5.30
2019-03-04T22:14:57.057Z,5.30
2019-03-04T22:17:27.743Z,5.30
2019-03-04T22:19:58.457Z,5.40
2019-03-04T22:22:29.292Z,5.60
2019-03-04T22:24:59.975Z,5.50
2019-03-04T22:27:30.857Z,5.60
2019-03-04T22:30:01.517Z,5.70
2019-03-04T22:32:32.437Z,5.70
2019-03-04T22:35:03.121Z,5.80
2019-03-04T22:37:33.963Z,5.80
2019-03-04T22:40:05.558Z,5.80
2019-03-04T22:42:36.356Z,5.80
2019-03-04T22:45:09.373Z,5.80
2019-03-04T22:47:40.050Z,5.70
2019-03-04T22:50:11.597Z,5.80
2019-03-04T22:52:42.259Z,5.70
2019-03-04T22:55:18.418Z,5.80
2019-03-04T22:57:49.500Z,5.80
2019-03-04T23:01:42.716Z,5.80
2019-03-04T23:04:34.108Z,5.80
2019-03-04T23:07:22.373Z,5.80
2019-03-04T23:10:07.463Z,5.80
2019-03-04T23:13:06.600Z,5.80
2019-03-04T23:15:37.277Z,5.80
2019-03-04T23:18:08.290Z,5.80
2019-03-04T23:20:38.975Z,5.90
2019-03-04T23:23:09.625Z,5.80
2019-03-04T23:25:40.317Z,5.90
2019-03-04T23:28:10.973Z,5.90
2019-03-04T23:30:41.632Z,5.90
2019-03-04T23:33:12.300Z,5.90
2019-03-04T23:35:42.963Z,5.90
2019-03-04T23:38:13.965Z,5.90
2019-03-04T23:40:44.816Z,5.90
2019-03-04T23:43:15.576Z,5.90
2019-03-04T23:45:46.517Z,5.90
2019-03-04T23:48:17.328Z,5.90
2019-03-04T23:50:47.997Z,5.90
2019-03-04T23:53:18.650Z,5.90
2019-03-04T23:55:49.316Z,6.00
2019-03-04T23:58:19.962Z,6.00
